Tiempo atmosférico en la estación meteorológica de Buitrago del Lozoya, Madrid (1026 m.)

Fecha
DESCASC
Temp. máxima en grados centígrados (hora)
DESCASC
Temp. mínima en grados centígrados (hora)
DESCASC
Temp. media en grados centígrados
DESCASC
Racha de viento máxima en m/sg (hora)
DESCASC
Velocidad máxima media en intervalos de 10 minutos(hora)
DESCASC
Precipitaciones diarias en mm
DESCASC
Precipitaciones de 00:00 a 06:00 en mm
DESCASC
Precipitaciones de 06:00 a 12:00 en mm
DESCASC
Precipitaciones de 12:00 a 18:00 en mm
DESCASC
Precipitaciones de 18:00 a 24:00 en mm
DESCASC
10-12-2017 -- (--) -- (--) -- -- (--) -- (--) -- -- -- 0 1.4
09-12-2017 -- (--) -- (--) -- -- (--) -- (--) -- 0.5 -- 1.7 --
08-12-2017 -- (--) -- (--) -- -- (--) -- (--) -- 0 -- -- --
07-12-2017 -- (--) -- (--) -- -- (--) -- (--) -- -- 0 -- 0
06-12-2017 -- (--) -- (--) -- -- (--) -- (--) -- 0 -- -- 0
05-12-2017 -- (--) -- (--) -- -- (--) -- (--) -- 0 -- 0 0
04-12-2017 -- (--) -- (--) -- -- (--) -- (--) -- -- -- -- 0
03-12-2017 -- (--) -- (--) -- -- (--) -- (--) -- -- 0 0 --
02-12-2017 -- (--) -- (--) -- -- (--) -- (--) -- -- 0.2 -- 0
01-12-2017 -- (--) -- (--) -- -- (--) -- (--) 1.8 0 0.5 1.3 0
30-11-2017 -- (--) -- (--) -- 10.28 (14:30) 5.28 (15:00) 0 0 0 0 0
29-11-2017 -- (--) -- (--) -- -- (--) -- (--) -- 0 0 0 --
28-11-2017 -- (--) -- (--) -- -- (--) -- (--) -- 0 -- 0 --
27-11-2017 -- (--) -- (--) -- 3.89 (14:00) 2.78 (14:10) 0 0 0 0 0
26-11-2017 -- (--) -- (--) -- 6.11 (02:20) 2.78 (00:10) 0 0 0 0 0
25-11-2017 11.4 (13:40) 2.9 (00:00) 7.1 9.72 (15:20) 5.83 (15:30) 0 0 0 0 0
24-11-2017 11.2 (14:30) 0.9 (00:00) 6 3.33 (04:40) 2.22 (04:30) 0.6 0.6 0 0 0
23-11-2017 12.7 (14:50) 2.3 (00:00) 7.5 4.44 (23:50) 2.22 (15:00) 1.2 0 0 0 1.2
22-11-2017 14.9 (15:00) -5 (-00:0) 4.9 4.17 (14:40) 2.78 (15:30) 0 0 0 0 0
21-11-2017 16 (14:50) -4.1 (-00:0) 6 3.89 (16:20) 2.5 (16:20) 0 0 0 0 0
20-11-2017 16.4 (14:40) -3.7 (-00:0) 6.3 3.89 (14:50) 2.22 (14:50) 0 0 0 0 0
19-11-2017 17 (15:00) -3.9 (-00:0) 6.5 3.89 (15:30) 2.5 (15:30) 0 0 0 0 0
18-11-2017 17.5 (14:10) -1.9 (-00:0) 7.8 5.56 (15:10) 2.78 (15:10) 0 0 0 0 0
17-11-2017 17.5 (14:10) -1.7 (-00:0) 7.9 4.44 (14:20) 2.5 (14:40) 0 0 0 0 0
16-11-2017 19.4 (14:00) -2.8 (-00:0) 8.3 5 (15:40) 3.33 (15:40) 0 0 0 0 0
15-11-2017 15.5 (15:00) -4.6 (-00:0) 5.5 3.61 (15:40) 2.22 (15:50) 0 0 0 0 0

Gráficas

Temp. máximas Temp. mínimas Temp. medias Precipitaciones Rachas de viento máximas Velocidades máximas media en intervalos de 10 minutos

Datos horarios

Fecha y hora oficial Temperatura (ºC) Velocidad del viento (km/h) Dirección del viento Racha (km/h) Dirección de racha Precipitación (mm) Presión (hPa) Tendencia (hPa) Humedad (%)
2017-12-14 23:00:00 8.5 7 Oeste 17 Noroeste 0 899.3 -1.6 82
2017-12-14 22:00:00 -- 5 Oeste -- -- -- 899.7 -1 --
2017-12-14 21:00:00 -- 2 Noroeste 9 Nordeste 0.1 900.5 -0.7 --
2017-12-14 20:00:00 -- 5 Nordeste -- -- -- 900.9 -0.8 --
2017-12-14 19:00:00 -- 4 Noroeste -- -- -- 900.7 -1 --
2017-12-14 18:00:00 8.7 3 Nordeste 24 Oeste 0 901.2 -1.1 76
2017-12-14 17:00:00 -- 9 Oeste 31 Oeste 0 901.7 -1.4 --
2017-12-14 16:00:00 -- 11 Oeste -- -- 0 901.7 -2.4 --
2017-12-14 15:00:00 9.1 4 Nordeste 26 Oeste 0 902.3 -2.5 72
2017-12-14 14:00:00 7.6 0 Calma 12 Nordeste 0 903.1 -- 92
2017-12-14 13:00:00 6.2 6 Nordeste 14 Este 0 904.1 -1.1 92
2017-12-14 12:00:00 5.5 6 Nordeste 16 Nordeste 0 904.8 -0.8 93
2017-12-14 11:00:00 -- -- -- -- -- -- -- -- --
2017-12-14 10:00:00 3.9 6 Nordeste 12 Nordeste 0 905.2 -0.1 90
2017-12-14 09:00:00 4.7 6 Este -- -- -- 905.6 0.3 84
2017-12-14 08:00:00 8.1 5 Noroeste 20 Noroeste 0 905.3 -0.5 85
2017-12-14 07:00:00 8 6 Noroeste -- -- -- 905.3 -1.1 84
2017-12-14 06:00:00 8 7 Noroeste 21 Noroeste 0 905.3 -1.2 82
2017-12-14 05:00:00 8.1 9 Noroeste 22 Oeste 0 905.8 -1.5 79
2017-12-14 04:00:00 8.2 9 Noroeste 25 Oeste 0 906.4 -- 76
2017-12-14 03:00:00 8 10 Noroeste -- -- -- 906.5 -1.9 76
2017-12-14 02:00:00 7.5 13 Oeste 26 Oeste 0 907.3 -0.9 78
2017-12-14 01:00:00 -- -- -- -- -- -- -- -- --
2017-12-14 00:00:00 3.7 2 Nordeste 16 Noroeste 0 908.4 -0.2 82
2017-12-13 23:00:00 3.1 5 Nordeste 12 Este 0 908.2 -0.4 85
2017-12-13 22:00:00 3.6 0 Calma 9 Noroeste 0 908.2 -0.4 80
2017-12-13 21:00:00 3.8 2 Norte 11 Este 0 908.6 0.1 81
2017-12-13 20:00:00 2.7 3 Nordeste 9 Nordeste 0 908.6 0.1 78
2017-12-13 19:00:00 2.7 0 Calma 8 Nordeste 0 908.6 0.6 72
2017-12-13 18:00:00 4 0 Calma 10 Nordeste 0 908.5 0.2 65
2017-12-13 17:00:00 5.1 6 Nordeste 14 Este 0 908.5 -0.1 62
2017-12-13 16:00:00 6.8 8 Este 12 Este 0 908 -1.6 58
2017-12-13 15:00:00 7.2 8 Nordeste 14 Nordeste 0 908.3 -1.8 56
2017-12-13 14:00:00 6.5 5 Nordeste 12 Nordeste 0 908.6 -1.2 55
2017-12-13 13:00:00 4.7 6 Nordeste 12 Nordeste 0 909.6 -0.5 59
2017-12-13 12:00:00 2.9 5 Nordeste 9 Este 0 910.1 0.7 67
2017-12-13 11:00:00 0 3 Nordeste -- -- -- 909.8 0.7 81
2017-12-13 10:00:00 -- 4 Oeste 8 Oeste 0 910.1 1.9 --
2017-12-13 09:00:00 -3.6 6 Noroeste 11 Noroeste 0 909.4 0.7 89
2017-12-13 08:00:00 -5 3 Norte 6 Nordeste 0 909.1 1 88
2017-12-13 07:00:00 -4.1 5 Oeste 10 Noroeste 0 908.2 0 88
2017-12-13 06:00:00 -4.6 2 Noroeste -- -- 0 908.7 0.9 86
2017-12-13 05:00:00 -3.8 0 Calma 10 Oeste 0 908.1 -- 86
2017-12-13 04:00:00 -4.6 2 Noroeste -- -- -- 908.2 0.2 85
2017-12-13 03:00:00 -4.2 2 Noroeste 7 Oeste 0 907.8 0.4 82
2017-12-13 02:00:00 -- 0 Calma 8 Oeste 0 -- -- --
2017-12-13 01:00:00 -2.6 6 Oeste -- -- -- 908 1.6 79
2017-12-13 00:00:00 -1.4 5 Oeste 14 Norte 0 907.4 1.3 74
2017-12-12 23:00:00 -1.8 6 Norte 10 Norte 0 906.8 1.3 76
2017-12-12 22:00:00 -0.5 5 Noroeste -- -- -- 906.4 1.5 69
2017-12-12 21:00:00 0.9 6 Norte -- -- -- 906.1 2 63
2017-12-12 20:00:00 0.7 3 Noroeste -- -- -- 905.5 2.1 63
2017-12-12 19:00:00 1.3 6 Norte 16 Noroeste 0 904.9 2 61
2017-12-12 18:00:00 1.8 11 Noroeste 23 Oeste 0 904.1 1.7 58
2017-12-12 17:00:00 3.5 8 Noroeste 22 Noroeste 0 903.4 1.5 55
2017-12-12 16:00:00 3.6 8 Noroeste 23 Oeste 0 902.9 1.5 57
2017-12-12 15:00:00 3.8 11 Noroeste 30 Noroeste 0 902.4 1 58
2017-12-12 14:00:00 4 6 Noroeste 30 Oeste 0 901.9 1.1 58
2017-12-12 13:00:00 3.4 4 Noroeste 23 Noroeste 0 901.4 1.4 58
2017-12-12 12:00:00 -- 5 Noroeste 13 Norte 0 901.4 1.7 --
2017-12-12 11:00:00 2.5 5 Nordeste 10 Norte 0 900.8 1.9 65
2017-12-12 10:00:00 0.1 3 Norte 10 Este 0 900 2 71
2017-12-12 09:00:00 -2.6 2 Nordeste -- -- -- 899.7 3 77
2017-12-12 08:00:00 -- 5 Norte 13 Noroeste 0 898.9 2.5 --
2017-12-12 07:00:00 -1.6 9 Noroeste 24 Noroeste 0 898 2.8 74
2017-12-12 06:00:00 -2.1 13 Noroeste 28 Noroeste 0 896.7 2.7 75
2017-12-12 05:00:00 -1.3 17 Noroeste 33 Noroeste 0 896.4 -- 73
2017-12-12 04:00:00 -- 13 Noroeste 33 Oeste 0 895.2 1.5 --
2017-12-12 03:00:00 -1.9 13 Noroeste 25 Noroeste 0 894 1.7 73
2017-12-12 02:00:00 -- -- -- -- -- -- -- -- --
2017-12-12 01:00:00 -- 23 Noroeste 43 Noroeste 0 893.7 3.6 --
2017-12-12 00:00:00 -0.2 18 Noroeste 37 Noroeste 0.1 892.3 3.4 71
2017-12-11 23:00:00 0.1 10 Noroeste 25 Noroeste 0 891.4 4 74
2017-12-11 22:00:00 0.2 4 Nordeste -- -- -- 890.1 3.6 83
2017-12-11 21:00:00 1.8 15 Noroeste 31 Noroeste 0.1 888.9 3.7 81
2017-12-11 20:00:00 2 9 Oeste -- -- -- 887.4 3.7 83
2017-12-11 19:00:00 1.8 5 Oeste 10 Noroeste 0.5 886.5 3.3 85
2017-12-11 18:00:00 2.1 3 Nordeste 10 Nordeste 0 885.2 2.6 83
2017-12-11 17:00:00 2.6 9 Noroeste -- -- -- 883.7 -- 73
2017-12-11 16:00:00 -- 12 Oeste 30 Oeste 0 883.2 1.1 --
2017-12-11 15:00:00 4.4 14 Oeste 30 Oeste 0 882.6 0.3 57
2017-12-11 14:00:00 -- 12 Noroeste 33 Oeste 0 -- -- --
2017-12-11 13:00:00 3.4 19 Oeste 37 Oeste 0 882.1 2.1 64
2017-12-11 12:00:00 3.3 13 Oeste 35 Oeste 0 882.3 -- 66
2017-12-11 11:00:00 -- 4 Noroeste 25 Oeste 0 -- -- --
2017-12-11 10:00:00 2.4 4 Nordeste 22 Oeste 0.4 880 2 84
2017-12-11 09:00:00 -- 6 Oeste 21 Noroeste 0 -- -- --
2017-12-11 08:00:00 2.9 13 Noroeste 31 Noroeste 0 878.1 1.2 77
2017-12-11 07:00:00 3.5 8 Noroeste 27 Noroeste 0 878 0.2 74
2017-12-11 06:00:00 3.5 9 Noroeste 34 Norte 0.1 877.1 -2.2 75
2017-12-11 05:00:00 -- 9 Noroeste 34 Noroeste 1.8 876.9 -1.2 --
2017-12-11 04:00:00 3.1 13 Noroeste 33 Oeste 1.6 877.8 -1.6 82
2017-12-11 03:00:00 5.7 10 Noroeste 45 Norte 1.6 879.3 -2.5 74
2017-12-11 02:00:00 9.1 23 Norte 51 Norte 0.1 878.1 -- 71
2017-12-11 01:00:00 8.4 17 Norte 46 Norte 0.4 879.4 -6 75
2017-12-11 00:00:00 8.1 16 Norte 43 Norte 0 881.8 -5.7 75
2017-12-10 23:00:00 -- -- -- -- -- -- -- -- --
2017-12-10 22:00:00 7.2 18 Nordeste 36 Norte 0 885.4 -4.7 82
2017-12-10 21:00:00 -- 16 Norte 31 Nordeste 0.1 887.5 -4 --
2017-12-10 20:00:00 7.3 14 Nordeste 29 Nordeste 0.5 888.6 -4.1 89
2017-12-10 19:00:00 7.3 10 Norte 24 Norte 0.8 890.1 -3.7 87
2017-12-10 18:00:00 8.1 5 Norte 22 Nordeste 0 891.5 -4 79
2017-12-10 17:00:00 7.4 9 Norte 24 Norte 0 892.7 -4.3 82
2017-12-10 16:00:00 8.1 3 Norte 14 Nordeste 0 893.8 -4.9 77
2017-12-10 15:00:00 8.5 3 Nordeste 13 Este 0 895.5 -4.5 75
2017-12-10 14:00:00 8.6 6 Nordeste 18 Este 0 897 -3.7 74
2017-12-10 13:00:00 10.1 8 Nordeste 30 Noroeste 0 898.7 -2.4 62
2017-12-10 12:00:00 9.2 11 Noroeste 34 Oeste 0 900 -1.8 66
2017-12-10 11:00:00 8.9 10 Noroeste 27 Oeste 0 900.7 -1.7 67
2017-12-10 10:00:00 8.2 8 Noroeste -- -- -- 901.1 -- 71
2017-12-10 09:00:00 7.7 14 Oeste 31 Oeste 0 901.8 -1.2 75
2017-12-10 08:00:00 8 10 Oeste 22 Noroeste 0 902.4 -- 73
2017-12-10 07:00:00 -- 6 Oeste -- -- -- -- -- --
2017-12-10 06:00:00 8.4 8 Noroeste 21 Norte 0.1 903 -1.8 68
2017-12-10 05:00:00 -- -- -- -- -- -- -- -- --
2017-12-10 04:00:00 8.8 8 Noroeste -- -- -- 904.5 -1.5 67
2017-12-10 03:00:00 8.8 7 Noroeste 20 Oeste 0 904.8 -1.7 71
2017-12-10 02:00:00 9.4 10 Oeste 30 Oeste 0 905.3 -1.5 67
2017-12-10 01:00:00 9.6 8 Noroeste -- -- -- 906 -0.9 67
2017-12-10 00:00:00 9.3 6 Noroeste 28 Noroeste 0 906.5 -0.2 68
2017-12-09 23:00:00 9.1 4 Norte -- -- -- 906.8 -0.1 69
2017-12-09 22:00:00 9.4 13 Noroeste 37 Noroeste 0 906.9 0.2 70
2017-12-09 21:00:00 -- 10 Noroeste -- -- -- 906.7 0.2 --
2017-12-09 20:00:00 9.2 17 Oeste 44 Noroeste 0 906.9 0.2 76
2017-12-09 19:00:00 7.5 3 Norte -- -- -- 906.7 -0.2 90
2017-12-09 18:00:00 7.7 2 Nordeste 13 Nordeste 0.9 906.5 -0.8 88
2017-12-09 17:00:00 8.1 5 Nordeste 16 Nordeste 0.5 906.7 -0.7 85
2017-12-09 16:00:00 8.3 3 Norte 14 Oeste 0.3 906.9 -1.3 81
2017-12-09 15:00:00 8.3 0 Calma 19 Noroeste 0 907.3 -- 79
2017-12-09 14:00:00 8.1 6 Noroeste 20 Oeste 0 907.4 -- 77
2017-12-09 13:00:00 7.5 5 Oeste 21 Norte 0 908.2 -0.6 80
2017-12-09 12:00:00 -- -- -- -- -- -- -- -- --
2017-12-09 11:00:00 -- -- -- -- -- -- -- -- --
2017-12-09 10:00:00 -- 3 Nordeste -- -- -- 908.8 -- --
2017-12-09 09:00:00 5.3 0 Calma 13 Norte 0 908.8 0.4 79
2017-12-09 08:00:00 5.1 6 Norte 17 Noroeste 0 908.6 -- 80
2017-12-09 07:00:00 -- -- -- -- -- -- -- -- --
2017-12-09 06:00:00 -- 6 Norte 19 Noroeste 0 908.4 -0.4 --
2017-12-09 05:00:00 -- -- -- -- -- 0 -- -- --
2017-12-09 04:00:00 5.6 6 Noroeste 22 Oeste 0 908.7 0.2 84
2017-12-09 03:00:00 -- 2 Norte 15 Nordeste 0.1 908.8 0.2 --
2017-12-09 02:00:00 5.9 8 Nordeste 26 Noroeste 0.4 908.7 0 88
2017-12-09 01:00:00 7.9 4 Noroeste -- -- -- 908.5 -0.3 90
2017-12-09 00:00:00 7.6 3 Nordeste 8 Nordeste 0.1 908.6 -0.3 90
2017-12-08 23:00:00 7.6 3 Nordeste 8 Nordeste 0 908.7 -0.3 90
2017-12-08 22:00:00 7.6 2 Nordeste -- -- -- 908.8 -0.2 90
2017-12-08 21:00:00 7.6 2 Nordeste -- -- -- 908.9 -0.5 89
2017-12-08 20:00:00 8.4 6 Noroeste 29 Noroeste 0 909 -0.4 84
2017-12-08 19:00:00 8.5 5 Oeste 16 Noroeste 0 909 -0.3 83
2017-12-08 18:00:00 -- 5 Noroeste -- -- -- 909.4 -- --
2017-12-08 17:00:00 8.7 8 Noroeste -- -- 0 909.4 -0.8 81
2017-12-08 16:00:00 8.8 11 Oeste 22 Oeste 0 909.3 -1.3 81
2017-12-08 15:00:00 -- -- -- -- -- -- -- -- --
2017-12-08 14:00:00 9 8 Noroeste -- -- -- 910.2 -1.4 77
2017-12-08 13:00:00 8.7 6 Noroeste 14 Noroeste 0 910.6 -0.6 78
2017-12-08 12:00:00 8.4 8 Noroeste 18 Noroeste 0 911.3 0.1 78
2017-12-08 11:00:00 7.6 5 Oeste 11 Noroeste 0 911.6 -- 80
2017-12-08 10:00:00 6.7 3 Norte 15 Noroeste 0 911.2 -0.1 79
2017-12-08 09:00:00 -- 5 Noroeste -- -- -- 911.2 -0.1 --
2017-12-08 08:00:00 -- 14 Noroeste 19 Noroeste 0 -- -- --
2017-12-08 07:00:00 6.9 10 Noroeste -- -- -- 911.3 -0.4 83
2017-12-08 06:00:00 -- 10 Noroeste 25 Noroeste 0 911.3 -0.5 --
2017-12-08 05:00:00 7.1 12 Noroeste 23 Noroeste 0 911.4 -0.4 86
2017-12-08 04:00:00 2.8 5 Oeste 12 Noroeste 0 911.7 0 79
2017-12-08 03:00:00 2.7 3 Noroeste -- -- -- 911.8 -0.7 74
2017-12-08 02:00:00 2.3 0 Calma 9 Norte 0 911.8 -0.9 72
2017-12-08 01:00:00 2.8 5 Nordeste 13 Este 0 911.7 -0.9 67
2017-12-08 00:00:00 2.5 3 Norte 11 Oeste 0 912.5 -0.3 68
2017-12-07 23:00:00 2.3 0 Calma 8 Noroeste 0 912.7 -0.4 68
2017-12-07 22:00:00 2.4 0 Calma 7 Este 0 912.6 0.3 64
2017-12-07 21:00:00 2.9 0 Calma -- -- -- 912.8 0.4 61
2017-12-07 20:00:00 3.8 3 Nordeste 8 Este 0 913.1 0.5 56
2017-12-07 19:00:00 4 0 Calma 9 Nordeste 0 912.3 -- 55
2017-12-07 18:00:00 -- 4 Norte 6 Este 0 912.4 0.6 --
2017-12-07 17:00:00 7.2 6 Nordeste 14 Este 0 912.6 -0.1 43
2017-12-07 16:00:00 -- 8 Nordeste -- -- 0 -- -- --
2017-12-07 15:00:00 8.7 9 Este -- -- -- 911.8 -2.4 36
2017-12-07 14:00:00 9.6 6 Nordeste -- -- -- 912.7 -1.5 35
2017-12-07 13:00:00 -- 5 Nordeste 10 Este 0 -- -- --
2017-12-07 12:00:00 4.8 3 Oeste -- -- -- 914.2 0.2 49
2017-12-07 11:00:00 2 4 Noroeste 8 Oeste 0 914.2 0.6 64
2017-12-07 10:00:00 -1.8 2 Norte 8 Oeste 0 914.1 0.8 74
2017-12-07 09:00:00 -2.5 2 Oeste 12 Noroeste 0 914 0.5 71
2017-12-07 08:00:00 -4.5 0 Calma 10 Oeste 0 913.6 -0.3 81
2017-12-07 07:00:00 -5 4 Oeste 8 Noroeste 0 913.3 -0.6 79
2017-12-07 06:00:00 -3.6 0 Calma 6 Noroeste 0 913.5 -- 77
2017-12-07 05:00:00 -3.4 3 Noroeste -- -- -- 913.9 -- 81
2017-12-07 04:00:00 -3.9 2 Norte 8 Oeste 0 913.9 -0.7 80
2017-12-07 03:00:00 -- -- -- -- -- -- -- -- --
2017-12-07 02:00:00 -- -- -- -- -- -- -- -- --
2017-12-07 01:00:00 -4.9 4 Noroeste 6 Noroeste 0 914.6 -0.4 82
2017-12-07 00:00:00 -4.5 3 Noroeste 6 Noroeste 0 915 0 81
2017-12-06 23:00:00 -- 0 Calma 6 Noroeste 0 914.9 -- --
2017-12-06 22:00:00 -4.8 0 Calma 5 Oeste 0 915 0.6 79
2017-12-06 21:00:00 -4 4 Oeste 6 Noroeste 0 915 0.7 77
2017-12-06 20:00:00 -- -- -- -- -- -- -- -- --
2017-12-06 19:00:00 -0.5 0 Calma 6 Norte 0 914.4 0.3 61
2017-12-06 18:00:00 2.5 4 Nordeste -- -- -- 914.3 0.1 48
2017-12-06 17:00:00 8 4 Nordeste 12 Nordeste 0 914.2 -0.4 40
2017-12-06 16:00:00 9.7 6 Nordeste 12 Nordeste 0 914.1 -1.2 36
2017-12-06 15:00:00 -- 8 Nordeste 15 Nordeste 0 914.2 -1.9 --
2017-12-06 14:00:00 9.8 4 Nordeste -- -- 0 914.6 -- 34
2017-12-06 13:00:00 -- 0 Calma 6 Norte 0 915.3 -1.3 --
2017-12-06 12:00:00 -- 0 Calma 7 Nordeste 0 916.1 -0.3 --
2017-12-06 11:00:00 -- -- -- -- -- -- -- -- --
2017-12-06 10:00:00 -1.6 0 Calma -- -- -- 916.6 0.6 78
2017-12-06 09:00:00 -7.2 2 Oeste 7 Oeste 0 916.4 0.3 88
2017-12-06 08:00:00 -- 4 Oeste 9 Noroeste 0 916.2 -0.1 --
2017-12-06 07:00:00 -7.8 5 Oeste 8 Oeste 0 916 -0.6 89
2017-12-06 06:00:00 -7.8 5 Noroeste 6 Oeste 0 916.1 -0.3 89
2017-12-06 05:00:00 -7.6 3 Noroeste 7 Oeste 0 916.3 -0.4 89
2017-12-06 04:00:00 -7.3 0 Calma 7 Oeste 0 916.6 -0.6 88
2017-12-06 03:00:00 -7.1 3 Oeste 8 Oeste 0 916.4 -0.8 87
2017-12-06 02:00:00 -6.2 3 Noroeste -- -- 0 916.7 -0.5 86
2017-12-06 01:00:00 -6.4 5 Oeste -- -- -- 917.2 0.1 86
2017-12-06 00:00:00 -5.5 2 Noroeste 7 Oeste 0 917.2 0.1 85
2017-12-05 23:00:00 -5.1 3 Oeste 8 Oeste 0 917.2 0 83
2017-12-05 22:00:00 -5 0 Calma 4 Noroeste 0 917.1 0.5 81
2017-12-05 21:00:00 -4 0 Calma 5 Noroeste 0 917.1 0.8 77
2017-12-05 20:00:00 -- 2 Noroeste 6 Noroeste 0 917.2 1 --
2017-12-05 19:00:00 0 3 Noroeste 6 Nordeste 0 916.6 0.5 65
2017-12-05 18:00:00 3.1 3 Nordeste 8 Nordeste 0 916.3 -0.2 49
2017-12-05 17:00:00 8.9 4 Nordeste -- -- -- 916.2 -0.4 39
2017-12-05 16:00:00 10 4 Nordeste 9 Norte 0 916.1 -1 34
2017-12-05 15:00:00 10 4 Nordeste 9 Nordeste 0 916.5 -1.4 34
2017-12-05 14:00:00 9.2 3 Norte 9 Norte 0 916.6 -1.3 35
2017-12-05 13:00:00 7.6 2 Nordeste 6 Nordeste 0 917.1 -0.7 37
2017-12-05 12:00:00 5.7 3 Nordeste 6 Norte 0 917.9 0.2 49
2017-12-05 11:00:00 2.4 3 Nordeste -- -- -- 917.9 0.6 62
2017-12-05 10:00:00 -2.5 3 Oeste 8 Oeste 0 917.8 0.9 81
2017-12-05 09:00:00 -7.1 4 Oeste 7 Oeste 0 917.7 1 91
2017-12-05 08:00:00 -- 0 Calma 4 Noroeste 0 917.3 0.3 --
2017-12-05 07:00:00 -7.5 5 Noroeste 9 Oeste 0 916.9 -0.3 90
2017-12-05 06:00:00 -7.7 5 Oeste 8 Oeste 0 916.7 -0.6 90
2017-12-05 05:00:00 -- 4 Noroeste 6 Noroeste 0 917 -0.2 --
2017-12-05 04:00:00 -7.3 4 Noroeste 6 Noroeste 0 917.2 -0.5 91
2017-12-05 03:00:00 -7.1 2 Noroeste -- -- -- 917.3 -0.8 90
2017-12-05 02:00:00 -6.5 4 Noroeste 6 Noroeste 0 917.2 -0.4 90
2017-12-05 01:00:00 -6 2 Noroeste 7 Noroeste 0 917.7 0.2 89
2017-12-05 00:00:00 -5.3 3 Noroeste 6 Oeste 0 918.1 0.7 89
2017-12-04 23:00:00 -- 0 Calma 6 Oeste 0 917.6 0.2 --
2017-12-04 22:00:00 -- 0 Calma 4 Norte 0 917.5 0.9 --
2017-12-04 21:00:00 -3.4 0 Calma 4 Noroeste 0 917.4 -- 82
2017-12-04 20:00:00 -1.7 3 Noroeste 5 Noroeste 0 917.4 -- 77
2017-12-04 19:00:00 0.2 2 Noroeste 9 Noroeste 0 916.6 1.1 67
2017-12-04 18:00:00 -- -- -- -- -- -- -- -- --
2017-12-04 17:00:00 -- -- -- -- -- -- -- -- --
2017-12-04 16:00:00 8.9 6 Nordeste 12 Nordeste 0 915.5 -0.8 43
2017-12-04 15:00:00 9.2 0 Calma 9 Nordeste 0 915.6 -1.3 40
2017-12-04 14:00:00 -- 4 Nordeste 10 Nordeste 0 -- -- --
2017-12-04 13:00:00 7.5 0 Calma 7 Norte 0 916.3 0 48
2017-12-04 12:00:00 -- 4 Norte -- -- -- 916.9 1.2 --
2017-12-04 11:00:00 1.8 3 Oeste 7 Oeste 0 917.1 1.9 70
2017-12-04 10:00:00 -1.4 5 Oeste 9 Oeste 0 916.3 1.4 78
2017-12-04 09:00:00 -5.1 3 Noroeste -- -- -- 915.7 1.3 86
2017-12-04 08:00:00 -5.4 5 Oeste 9 Noroeste 0 915.2 0.9 85
2017-12-04 07:00:00 -- 6 Noroeste 13 Oeste 0 914.9 0.4 --
2017-12-04 06:00:00 -3.8 4 Oeste 12 Noroeste 0 914.4 0.2 83
2017-12-04 05:00:00 -3.4 4 Noroeste -- -- -- 914.3 -- 82
2017-12-04 04:00:00 -- 5 Oeste -- -- -- 914.5 0.4 --
2017-12-04 03:00:00 -2.4 6 Noroeste -- -- -- 914.2 -- 78
2017-12-04 02:00:00 -- 7 Oeste 12 Oeste 0 -- -- --
2017-12-04 01:00:00 -- 5 Oeste -- -- -- 914.1 0.8 --
2017-12-04 00:00:00 -- -- -- -- -- -- -- -- --
2017-12-03 23:00:00 -3.3 2 Noroeste 13 Oeste 0 913.6 0.7 71
2017-12-03 22:00:00 -3 0 Calma -- -- -- 913.3 -- 71
2017-12-03 21:00:00 -1.4 5 Noroeste 14 Oeste 0 913.2 1.1 65
2017-12-03 20:00:00 0.3 6 Noroeste 24 Noroeste 0 912.9 1.5 59
2017-12-03 19:00:00 -- 6 Noroeste 22 Noroeste 0 -- -- --
2017-12-03 18:00:00 1 6 Noroeste 31 Noroeste 0 912.1 1.4 55
2017-12-03 17:00:00 2 12 Noroeste 25 Noroeste 0 911.4 0.6 51
2017-12-03 16:00:00 2.9 10 Noroeste 27 Noroeste 0 911.3 0.4 47
2017-12-03 15:00:00 2.8 17 Noroeste 37 Noroeste 0 910.7 -0.9 50
2017-12-03 14:00:00 -- 18 Noroeste 32 Noroeste 0 910.8 -- --
2017-12-03 13:00:00 2.6 16 Noroeste 34 Norte 0 910.9 0.1 40
2017-12-03 12:00:00 1.6 6 Nordeste 28 Noroeste 0 911.6 1.1 52
2017-12-03 11:00:00 -- -- -- -- -- -- -- -- --
2017-12-03 10:00:00 -- 12 Noroeste 26 Noroeste 0 910.8 1.7 --
2017-12-03 09:00:00 -2.2 5 Noroeste 27 Noroeste 0 910.5 2 65
2017-12-03 08:00:00 -2.6 13 Noroeste 35 Noroeste 0 909.7 1.7 68
2017-12-03 07:00:00 -2.3 15 Noroeste 35 Norte 0 909.1 1.6 66
2017-12-03 06:00:00 -2 14 Noroeste -- -- -- 908.5 1.3 67
2017-12-03 05:00:00 -- 19 Noroeste 48 Noroeste 0 908 0.8 --
2017-12-03 04:00:00 -1.7 25 Noroeste 58 Noroeste 0 907.5 -0.7 71
2017-12-03 03:00:00 -1.4 27 Noroeste 49 Noroeste 0 907.2 -0.9 70
2017-12-03 02:00:00 -1.7 21 Noroeste -- -- -- 907.2 -- 71
2017-12-03 01:00:00 -1.5 16 Noroeste 32 Noroeste 0 908.2 0.6 73
2017-12-03 00:00:00 -1.4 14 Noroeste 39 Noroeste 0 908.1 0.9 73
2017-12-02 23:00:00 -- -- -- -- -- -- -- -- --
2017-12-02 22:00:00 -0.8 7 Noroeste 35 Noroeste 0 907.6 1.3 70
2017-12-02 21:00:00 -0.3 14 Noroeste 33 Noroeste 0 907.2 1.3 71
2017-12-02 20:00:00 0 10 Noroeste 30 Noroeste 0 907.1 1.3 73
2017-12-02 19:00:00 0 8 Noroeste 33 Noroeste 0 906.3 0.7 72
2017-12-02 18:00:00 0.1 12 Noroeste 44 Noroeste 0 905.9 -- 71
2017-12-02 17:00:00 -- 13 Noroeste 40 Oeste 0 905.8 -- --
2017-12-02 16:00:00 0 14 Noroeste 33 Noroeste 0 905.6 -0.8 75
2017-12-02 15:00:00 -- -- -- -- -- -- -- -- --
2017-12-02 14:00:00 -- -- -- -- -- -- -- -- --
2017-12-02 13:00:00 -- 12 Noroeste 30 Noroeste 0 906.4 0.3 --
2017-12-02 12:00:00 -0.8 8 Noroeste -- -- -- 906.6 1.4 75
2017-12-02 11:00:00 -1.6 5 Nordeste 29 Noroeste 0 906.7 1 78
2017-12-02 10:00:00 -1.9 8 Noroeste 24 Oeste 0.1 906.1 0.6 80
2017-12-02 09:00:00 -2.3 10 Oeste 20 Oeste 0.1 905.2 0 79
2017-12-02 08:00:00 -2.4 5 Nordeste 10 Nordeste 0 905.7 0.1 79
2017-12-02 07:00:00 -- 2 Nordeste 23 Norte 0 905.5 0.1 --
2017-12-02 06:00:00 -1.8 7 Noroeste -- -- -- 905.2 -0.2 70
2017-12-02 05:00:00 -- 3 Nordeste 15 Norte 0 905.6 0.2 --
2017-12-02 04:00:00 -1.5 4 Norte -- -- -- 905.4 -0.3 69
2017-12-02 03:00:00 -1.7 5 Noroeste -- -- -- 905.4 -0.2 75
2017-12-02 02:00:00 -- 7 Noroeste 25 Oeste 0 905.4 -- --
2017-12-02 01:00:00 -1.8 2 Norte -- -- -- 905.7 0.7 71
2017-12-02 00:00:00 -1.8 11 Norte 36 Noroeste 0 905.6 0.8 71
2017-12-01 23:00:00 -- -- -- -- -- -- -- -- --
2017-12-01 22:00:00 -2 18 Noroeste 37 Noroeste 0 905 1.4 68
2017-12-01 21:00:00 -- 13 Noroeste 38 Oeste 0 904.8 1.8 --
2017-12-01 20:00:00 -2.2 16 Noroeste 36 Noroeste 0 904.1 1.6 69
2017-12-01 19:00:00 -2 11 Noroeste 37 Noroeste 0 903.6 2.1 69
2017-12-01 18:00:00 -1.7 17 Noroeste 41 Noroeste 0 903 2.1 64
2017-12-01 17:00:00 -- 18 Noroeste 41 Noroeste 0 902.5 1.8 --
2017-12-01 16:00:00 0.1 19 Noroeste -- -- -- 901.5 0.9 68
2017-12-01 15:00:00 0.2 16 Noroeste 36 Noroeste 0.1 900.9 0.8 76
2017-12-01 14:00:00 -0.1 16 Noroeste 43 Noroeste 0.1 900.7 1.2 83
2017-12-01 13:00:00 -0.5 25 Noroeste 44 Noroeste 1.1 900.6 0.7 91
2017-12-01 12:00:00 -0.5 22 Noroeste 59 Noroeste 0.5 900.1 -0.3 88
2017-12-01 11:00:00 1.9 29 Oeste 54 Noroeste 0 899.5 -1.3 68
2017-12-01 10:00:00 1.6 25 Oeste 51 Noroeste 0 899.9 -1.7 65
2017-12-01 09:00:00 0.9 17 Noroeste 41 Oeste 0 900.4 -- 64
2017-12-01 08:00:00 0.7 10 Oeste 23 Oeste 0 900.8 -1.5 64
2017-12-01 07:00:00 0.9 8 Noroeste 25 Oeste 0 901.6 -1.3 64
2017-12-01 06:00:00 -- -- -- -- -- -- -- -- --
2017-12-01 05:00:00 0.6 6 Noroeste 25 Noroeste 0 902.3 -1 65
2017-12-01 04:00:00 0.5 12 Noroeste -- -- -- 902.9 -0.8 66
2017-12-01 03:00:00 0.2 21 Noroeste 41 Oeste 0 902.8 -- 67
2017-12-01 02:00:00 -0.3 3 Nordeste 29 Noroeste 0 903.3 -0.2 64
2017-12-01 01:00:00 0.8 8 Noroeste 35 Oeste 0 903.7 0.2 61
2017-12-01 00:00:00 -- 13 Noroeste 37 Oeste 0 -- -- --
2017-11-30 23:00:00 0.9 12 Oeste 26 Oeste 0 903.5 0.4 64
2017-11-30 22:00:00 0.6 5 Oeste 30 Oeste 0 903.5 0.5 62
2017-11-30 21:00:00 1.2 15 Noroeste 31 Noroeste 0 902.9 0.1 63
2017-11-30 20:00:00 -0.3 5 Noroeste 16 Noroeste 0 903.1 0.8 66
2017-11-30 19:00:00 -0.2 5 Oeste 16 Oeste 0 903 1.2 66
2017-11-30 18:00:00 0.8 5 Oeste 23 Noroeste 0 902.8 1.4 60
2017-11-30 17:00:00 2.4 12 Noroeste 27 Noroeste 0 902.3 0.9 57
2017-11-30 16:00:00 3.3 14 Noroeste 34 Noroeste 0 901.8 0.2 54
2017-11-30 15:00:00 3.4 19 Noroeste 37 Norte 0 901.4 0 55
2017-11-30 14:00:00 -- 13 Norte 32 Norte 0 901.4 0.1 --
2017-11-30 13:00:00 -- 13 Norte 33 Noroeste 0 901.6 1 --
2017-11-30 12:00:00 2.1 17 Noroeste 33 Noroeste 0 901.4 -- 60
2017-11-30 11:00:00 1 15 Norte 31 Norte 0 901.3 2.1 63
2017-11-30 10:00:00 0.7 13 Norte 27 Norte 0 900.6 1.8 64
2017-11-30 09:00:00 -- 13 Norte 17 Norte 0 -- -- --
2017-11-30 08:00:00 -3.7 3 Noroeste 14 Noroeste 0 899.2 1.4 75
2017-11-30 07:00:00 -1.6 9 Noroeste 26 Norte 0 898.8 0.7 71
2017-11-30 06:00:00 -1.2 14 Norte 31 Noroeste 0 898.4 -- 71
2017-11-30 05:00:00 -1.1 9 Norte 27 Norte 0 897.8 0.5 71
2017-11-30 04:00:00 -2.5 2 Norte 16 Noroeste 0 898.1 1.1 74
2017-11-30 03:00:00 -- -- -- -- -- -- -- -- --
2017-11-30 02:00:00 -1.3 5 Noroeste 31 Noroeste 0 897.3 0.3 74
2017-11-30 01:00:00 -0.6 11 Noroeste -- -- -- 897 0.4 73
2017-11-30 00:00:00 -- 4 Noroeste -- -- -- 897 0.8 --
2017-11-29 23:00:00 -2.4 2 Norte 10 Nordeste 0 897 0.9 71
2017-11-29 22:00:00 -0.2 3 Nordeste 25 Norte 0 896.6 -- 67
2017-11-29 21:00:00 -- 8 Noroeste -- -- -- 896.2 1.2 --
2017-11-29 20:00:00 -- 10 Noroeste 17 Noroeste 0 896.1 1.7 --
2017-11-29 19:00:00 -- 11 Noroeste 20 Oeste 0 -- -- --
2017-11-29 18:00:00 3 11 Noroeste 23 Norte 0 895 1.6 62
2017-11-29 17:00:00 3.9 6 Noroeste 21 Noroeste 0 894.4 0.8 59
2017-11-29 16:00:00 4.2 5 Norte 31 Oeste 0 894 0 59
2017-11-29 15:00:00 5.2 15 Noroeste 32 Noroeste 0 893.4 -1.1 57
2017-11-29 14:00:00 4.9 15 Noroeste 29 Norte 0 893.6 -0.8 54
2017-11-29 13:00:00 5.8 14 Noroeste 31 Noroeste 0 894 -0.1 55
2017-11-29 12:00:00 5.6 15 Noroeste 32 Oeste 0 894.5 0.8 55
2017-11-29 11:00:00 5.3 9 Noroeste -- -- -- 894.4 1.1 59
2017-11-29 10:00:00 4.5 12 Noroeste 22 Noroeste 0 894.1 1.1 69
2017-11-29 09:00:00 1.2 4 Noroeste 14 Norte 0 893.7 0.4 82
2017-11-29 08:00:00 -1.4 5 Noroeste 12 Noroeste 0 893.3 0.2 81
2017-11-29 07:00:00 -1.1 8 Oeste 13 Oeste 0 893 -0.9 81
2017-11-29 06:00:00 1 3 Noroeste 15 Noroeste 0 893.3 -1 81
2017-11-29 05:00:00 -3.1 5 Oeste 8 Oeste 0 893.1 -1.7 86
2017-11-29 04:00:00 -3.1 4 Noroeste -- -- 0 893.9 -1.8 83
2017-11-29 03:00:00 -2.4 3 Oeste 9 Oeste 0 894.3 -2.1 83
2017-11-29 02:00:00 -1.5 3 Noroeste 10 Oeste 0 894.8 -1.9 82
2017-11-29 01:00:00 -0.4 2 Noroeste -- -- -- 895.7 -1.4 79
2017-11-29 00:00:00 0.2 0 Calma 8 Oeste 0 896.4 -1.2 76
2017-11-28 23:00:00 1.4 2 Noroeste 8 Noroeste 0 896.7 -- 73
2017-11-28 22:00:00 1.5 5 Noroeste 8 Noroeste 0 897.1 -- 72
2017-11-28 21:00:00 1.5 2 Noroeste 5 Noroeste 0 897.6 -1.3 69
2017-11-28 20:00:00 -- 0 Calma 7 Nordeste 0 -- -- --
2017-11-28 19:00:00 -- -- -- -- -- -- -- -- --
2017-11-28 18:00:00 4.2 5 Nordeste 9 Este 0 898.9 -1.3 57
2017-11-28 17:00:00 5.2 6 Este 13 Este 0 899.2 -1.9 54
2017-11-28 16:00:00 7.5 3 Nordeste 10 Este 0 899.7 -2.3 46
2017-11-28 15:00:00 6.6 6 Este 12 Este 0 900.2 -3 50
2017-11-28 14:00:00 6.7 5 Nordeste 12 Nordeste 0 901.1 -2.8 51
2017-11-28 13:00:00 4.8 5 Este 8 Este 0 902 -1.9 51
2017-11-28 12:00:00 2.4 3 Nordeste -- -- -- 903.2 -1.1 64
2017-11-28 11:00:00 0.6 0 Calma 8 Nordeste 0 903.9 -0.4 69
2017-11-28 10:00:00 0.4 3 Oeste 9 Oeste 0 903.9 -0.6 68
2017-11-28 09:00:00 -4.4 0 Calma -- -- -- 904.3 -0.5 78
2017-11-28 08:00:00 -5.2 0 Calma 7 Oeste 0 904.3 -0.6 79
2017-11-28 07:00:00 -5.2 3 Noroeste 9 Noroeste 0 904.5 -1.1 78
2017-11-28 06:00:00 -4.1 6 Noroeste 11 Noroeste 0 904.8 -1.4 78
2017-11-28 05:00:00 -3.6 4 Oeste 10 Oeste 0 904.9 -1.9 78
2017-11-28 04:00:00 -4 2 Nordeste 8 Oeste 0 905.6 -1.9 77
2017-11-28 03:00:00 -4.3 6 Oeste -- -- -- 906.2 -1.6 80
2017-11-28 02:00:00 -3.5 0 Calma 9 Noroeste 0 906.8 -1.3 75
2017-11-28 01:00:00 -3.1 3 Oeste 5 Noroeste 0 907.5 -0.8 73
2017-11-28 00:00:00 -1.3 0 Calma 5 Noroeste 0 907.8 -0.8 69
2017-11-27 23:00:00 -0.8 0 Calma 6 Noroeste 0 908.1 -0.9 65
2017-11-27 22:00:00 1.1 0 Calma 10 Noroeste 0 908.3 -0.7 59
2017-11-27 21:00:00 0.9 4 Noroeste 7 Oeste 0 908.6 -0.2 59
2017-11-27 20:00:00 0.8 3 Oeste 6 Noroeste 0 909 -0.1 56
2017-11-27 19:00:00 1.9 2 Nordeste 7 Este 0 909 -0.2 47
2017-11-27 18:00:00 6.1 5 Nordeste 9 Este 0 908.8 -0.7 36
2017-11-27 17:00:00 8.4 2 Nordeste 10 Nordeste 0 909.1 -1.1 33
2017-11-27 16:00:00 10 5 Nordeste 12 Nordeste 0 909.2 -1.8 30
2017-11-27 15:00:00 10.3 6 Nordeste 14 Nordeste 0 909.5 -2.3 29
2017-11-27 14:00:00 9.8 9 Nordeste 14 Nordeste 0 910.2 -2.3 26
2017-11-27 13:00:00 9.6 5 Nordeste 11 Este 0 911 -1.7 28
2017-11-27 12:00:00 8.1 4 Norte 9 Oeste 0 911.8 -0.7 31
2017-11-27 11:00:00 3.8 2 Noroeste -- -- -- 912.5 0.4 40
2017-11-27 10:00:00 -0.6 4 Oeste -- -- -- 912.7 0.9 54
2017-11-27 09:00:00 -6.1 3 Oeste 8 Oeste 0 912.5 0.9 74
2017-11-27 08:00:00 -7.8 0 Calma 6 Noroeste 0 912.1 0.4 77
2017-11-27 07:00:00 -6.6 4 Noroeste 9 Oeste 0 911.8 -0.3 76
2017-11-27 06:00:00 -7.1 4 Norte 10 Noroeste 0 911.6 -0.7 77
2017-11-27 05:00:00 -5.4 6 Noroeste 10 Noroeste 0 911.7 -0.6 76
2017-11-27 04:00:00 -6.1 3 Noroeste 12 Oeste 0 912.1 -0.7 79
2017-11-27 03:00:00 -- 8 Noroeste 11 Noroeste 0 912.3 -0.8 --
2017-11-27 02:00:00 -6.3 0 Calma 5 Nordeste 0 912.3 -0.4 83
2017-11-27 01:00:00 -5.5 0 Calma 5 Nordeste 0 912.8 -0.5 81
2017-11-27 00:00:00 -3.7 2 Noroeste 10 Oeste 0 913.1 -0.1 79
2017-11-26 23:00:00 -3.7 3 Oeste 8 Oeste 0 912.7 -0.4 80
2017-11-26 22:00:00 -- 4 Noroeste 8 Oeste 0 913.3 0.5 --
2017-11-26 21:00:00 -2.5 6 Oeste 8 Oeste 0 913.2 0.7 76
2017-11-26 20:00:00 -0.6 2 Norte 5 Norte 0 913.1 1 67
2017-11-26 19:00:00 1.1 4 Nordeste 8 Nordeste 0 912.8 0.8 58
2017-11-26 18:00:00 3.6 0 Calma 8 Nordeste 0 912.5 0.5 47
2017-11-26 17:00:00 8.7 5 Nordeste 9 Norte 0 912.1 -0.3 37
2017-11-26 16:00:00 9.5 5 Nordeste 14 Nordeste 0 912 -0.8 37
2017-11-26 15:00:00 9.5 6 Nordeste 16 Nordeste 0 912 -1.4 37
2017-11-26 14:00:00 9.3 10 Nordeste 19 Nordeste 0 -- -- 39
2017-11-26 13:00:00 9.1 4 Norte 14 Norte 0 -- -- 39
2017-11-26 12:00:00 7.1 4 Nordeste 10 Nordeste 0 -- -- 43
2017-11-26 11:00:00 4.6 3 Nordeste 6 Noroeste 0 -- -- 56
2017-11-26 10:00:00 0.2 5 Oeste 11 Oeste 0 -- -- 71
2017-11-26 09:00:00 -3.5 0 Calma 6 Oeste 0 -- -- 82
2017-11-26 08:00:00 -- -- -- -- -- -- -- -- --
2017-11-26 07:00:00 -2.3 6 Oeste 9 Oeste 0 -- -- 78
2017-11-26 06:00:00 -2.3 6 Noroeste 9 Noroeste 0 -- -- 73
2017-11-26 05:00:00 -0.8 2 Norte 9 Nordeste 0 -- -- 69
2017-11-26 04:00:00 0.4 2 Norte 18 Oeste 0 -- -- 63
2017-11-26 03:00:00 1.9 2 Norte 22 Noroeste 0 -- -- 63
2017-11-26 02:00:00 3.3 7 Norte 21 Norte 0 -- -- 61
2017-11-26 01:00:00 2.3 7 Noroeste 19 Noroeste 0 -- -- 69
2017-11-26 00:00:00 2.9 9 Norte 25 Noroeste 0 -- -- 73
2017-11-25 23:00:00 4.2 14 Noroeste 24 Noroeste 0 -- -- 74
2017-11-25 22:00:00 4.1 10 Noroeste 18 Noroeste 0 -- -- 73
2017-11-25 21:00:00 5.6 8 Noroeste 15 Noroeste 0 -- -- 74
2017-11-25 20:00:00 6.6 9 Noroeste 14 Noroeste 0 -- -- 75
2017-11-25 19:00:00 7.3 2 Norte 16 Oeste 0 -- -- 72
2017-11-25 18:00:00 8 8 Noroeste 19 Noroeste 0 -- -- 72
2017-11-25 17:00:00 8.9 14 Noroeste 30 Noroeste 0 -- -- 68
2017-11-25 16:00:00 9.5 18 Noroeste 35 Noroeste 0 -- -- 66
2017-11-25 15:00:00 10 16 Noroeste 30 Noroeste 0 -- -- 66
2017-11-25 14:00:00 10.7 15 Norte 28 Noroeste 0 -- -- 67
2017-11-25 13:00:00 11.3 11 Norte 23 Norte 0 -- -- 67
2017-11-25 12:00:00 10.2 9 Noroeste 19 Norte 0 -- -- 71
2017-11-25 11:00:00 10.9 12 Noroeste 19 Noroeste 0 -- -- 72
2017-11-25 10:00:00 9.4 3 Nordeste 6 Nordeste 0 -- -- 62
2017-11-25 09:00:00 9.1 3 Noroeste 13 Noroeste 0 -- -- 55
2017-11-25 08:00:00 9.5 4 Noroeste 14 Nordeste 0 -- -- 51
2017-11-25 07:00:00 8.1 4 Este 10 Oeste 0 -- -- 54
2017-11-25 06:00:00 8.7 2 Noroeste 15 Nordeste 0 -- -- 51
2017-11-25 05:00:00 7.6 4 Norte 12 Nordeste 0 -- -- 62
2017-11-25 04:00:00 5 0 Calma 13 Nordeste 0 -- -- 88
2017-11-25 03:00:00 4.1 2 Noroeste 11 Oeste 0 -- -- 91
2017-11-25 02:00:00 4.2 2 Nordeste 8 Oeste 0 -- -- 91
2017-11-25 01:00:00 4.8 0 Calma 9 Oeste 0 -- -- 91
2017-11-25 00:00:00 5 0 Calma 3 Oeste 0 -- -- 91
2017-11-24 23:00:00 4.4 0 Calma 6 Oeste 0 -- -- 91
2017-11-24 22:00:00 3.9 0 Calma 4 Noroeste 0 -- -- 88
2017-11-24 21:00:00 5.3 0 Calma 5 Noroeste 0 -- -- 86
2017-11-24 20:00:00 7 0 Calma 3 Noroeste 0 -- -- 81
2017-11-24 19:00:00 8.7 0 Calma 8 Noroeste 0 -- -- 76
2017-11-24 18:00:00 8.8 4 Noroeste 6 Noroeste 0 -- -- 76
2017-11-24 17:00:00 9.9 2 Norte 5 Este 0 -- -- 70
2017-11-24 16:00:00 9.9 3 Nordeste 8 Nordeste 0 -- -- 71
2017-11-24 15:00:00 10.7 3 Norte 10 Este 0 -- -- 69
2017-11-24 14:00:00 9.6 3 Nordeste 9 Nordeste 0 -- -- 73
2017-11-24 13:00:00 8.2 5 Nordeste 8 Este 0 -- -- 77
2017-11-24 12:00:00 8.1 2 Nordeste 5 Oeste 0 -- -- 77
2017-11-24 11:00:00 6.4 4 Oeste 8 Oeste 0 -- -- 85
2017-11-24 10:00:00 6.5 2 Nordeste 6 Norte 0 -- -- 89
2017-11-24 09:00:00 2.6 0 Calma 3 Oeste 0 -- -- 92
2017-11-24 08:00:00 1.1 2 Oeste 5 Oeste 0 -- -- 90
2017-11-24 07:00:00 2 2 Nordeste 6 Oeste 0 -- -- 88
2017-11-24 06:00:00 4.5 0 Calma 10 Nordeste 0.1 -- -- 83
2017-11-24 05:00:00 5.5 5 Nordeste 12 Nordeste 0 -- -- 86
2017-11-24 04:00:00 5 3 Noroeste 6 Nordeste 0 -- -- 92
2017-11-24 03:00:00 5.3 2 Noroeste 5 Noroeste 0.1 -- -- 92
2017-11-24 02:00:00 4.9 0 Calma 10 Oeste 0.4 -- -- 91
2017-11-24 01:00:00 4.7 0 Calma 9 Noroeste 0 -- -- 90
2017-11-24 00:00:00 5.2 3 Nordeste 16 Norte 1.2 -- -- 86
2017-11-23 23:00:00 4.3 5 Oeste 9 Oeste 0 -- -- 78
2017-11-23 22:00:00 5.2 2 Noroeste 7 Oeste 0 -- -- 75
2017-11-23 21:00:00 4.2 2 Noroeste 6 Norte 0 -- -- 74
2017-11-23 20:00:00 4.9 3 Noroeste 8 Noroeste 0 -- -- 71
2017-11-23 19:00:00 5.4 3 Oeste 7 Noroeste 0 -- -- 65
2017-11-23 18:00:00 7.4 6 Noroeste 7 Noroeste 0 -- -- 58
2017-11-23 17:00:00 11 3 Norte 10 Este 0 -- -- 48
2017-11-23 16:00:00 11.7 4 Nordeste 14 Nordeste 0 -- -- 47
2017-11-23 15:00:00 12.2 8 Nordeste 15 Nordeste 0 -- -- 45
2017-11-23 14:00:00 12 7 Nordeste 13 Este 0 -- -- 46
2017-11-23 13:00:00 11.2 5 Nordeste 14 Este 0 -- -- 48
2017-11-23 12:00:00 10.3 3 Nordeste 9 Nordeste 0 -- -- 54
2017-11-23 11:00:00 8.2 2 Norte 7 Noroeste 0 -- -- 62
2017-11-23 10:00:00 5.1 4 Oeste 7 Noroeste 0 -- -- 78
2017-11-23 09:00:00 3.4 2 Nordeste 7 Oeste 0 -- -- 79
2017-11-23 08:00:00 2.9 3 Noroeste 8 Noroeste 0 -- -- 79
2017-11-23 07:00:00 3.4 0 Calma 8 Oeste 0 -- -- 78
2017-11-23 06:00:00 3.8 4 Noroeste 6 Norte 0 -- -- 78
2017-11-23 05:00:00 3.7 4 Nordeste 9 Noroeste 0 -- -- 79
2017-11-23 04:00:00 3.7 6 Noroeste 11 Noroeste 0 -- -- 79
2017-11-23 03:00:00 2.5 0 Calma 8 Noroeste 0 -- -- 80
2017-11-23 02:00:00 2.4 2 Oeste 9 Noroeste 0 -- -- 79
2017-11-23 01:00:00 2.9 0 Calma 7 Oeste 0 -- -- 75
2017-11-23 00:00:00 3.7 4 Noroeste 9 Norte 0 -- -- 74
2017-11-22 23:00:00 3.3 4 Oeste 7 Oeste 0 -- -- 75
2017-11-22 22:00:00 3 0 Calma 6 Noroeste 0 -- -- 75
2017-11-22 21:00:00 2 0 Calma 4 Noroeste 0 -- -- 74
2017-11-22 20:00:00 2.6 2 Noroeste 6 Noroeste 0 -- -- 65
2017-11-22 19:00:00 6.1 3 Noroeste 9 Noroeste 0 -- -- 55
2017-11-22 18:00:00 9.8 2 Nordeste 10 Este 0 -- -- 45
2017-11-22 17:00:00 11.9 5 Nordeste 13 Nordeste 0 -- -- 42
2017-11-22 16:00:00 13.8 6 Nordeste 14 Nordeste 0 -- -- 40
2017-11-22 15:00:00 14.5 6 Norte 15 Este 0 -- -- 38
2017-11-22 14:00:00 13.8 6 Nordeste 13 Este 0 -- -- 39
2017-11-22 13:00:00 13.6 5 Nordeste 11 Este 0 -- -- 40
2017-11-22 12:00:00 12.3 3 Nordeste 6 Norte 0 -- -- 43
2017-11-22 11:00:00 7.7 0 Calma 8 Oeste 0 -- -- 51
2017-11-22 10:00:00 2.8 4 Oeste 9 Oeste 0 -- -- 70
2017-11-22 09:00:00 -2 3 Oeste 9 Oeste 0 -- -- 86
2017-11-22 08:00:00 -5 3 Noroeste 5 Noroeste 0 -- -- 89
2017-11-22 07:00:00 -4.4 5 Noroeste 7 Noroeste 0 -- -- 88
2017-11-22 06:00:00 -4.2 5 Oeste 9 Oeste 0 -- -- 89
2017-11-22 05:00:00 -3.8 0 Calma 9 Noroeste 0 -- -- 88
2017-11-22 04:00:00 -2.8 0 Calma 11 Oeste 0 -- -- 87
2017-11-22 03:00:00 -3.3 3 Noroeste 6 Oeste 0 -- -- 88
2017-11-22 02:00:00 -2.9 4 Noroeste 6 Oeste 0 -- -- 87
2017-11-22 01:00:00 -2.1 3 Noroeste 9 Oeste 0 -- -- 84
2017-11-22 00:00:00 -1.3 5 Oeste 9 Noroeste 0 -- -- 84
2017-11-21 23:00:00 -- 0 Calma 6 Nordeste 0 -- -- --
2017-11-21 22:00:00 -0.1 0 Calma 9 Oeste 0 -- -- 77
2017-11-21 21:00:00 0.8 4 Oeste 6 Noroeste 0 -- -- 75
2017-11-21 20:00:00 2.1 5 Oeste 6 Oeste 0 -- -- 70
2017-11-21 19:00:00 4.4 2 Noroeste 6 Norte 0 -- -- 61
2017-11-21 18:00:00 8.2 2 Nordeste 8 Nordeste 0 -- -- 47
2017-11-21 17:00:00 13.6 7 Nordeste 14 Nordeste 0 -- -- 38
2017-11-21 16:00:00 15.3 8 Nordeste 12 Nordeste 0 -- -- 37
2017-11-21 15:00:00 15.3 7 Nordeste 13 Este 0 -- -- 36
2017-11-21 14:00:00 15.1 6 Nordeste 13 Nordeste 0 -- -- 35
2017-11-21 13:00:00 14.4 4 Nordeste 10 Nordeste 0 -- -- 36
2017-11-21 12:00:00 12.9 2 Nordeste 7 Norte 0 -- -- 38
2017-11-21 11:00:00 9.3 3 Nordeste 5 Nordeste 0 -- -- 49
2017-11-21 10:00:00 4.7 0 Calma 4 Nordeste 0 -- -- 63
2017-11-21 09:00:00 -1.7 0 Calma 8 Oeste 0 -- -- 81
2017-11-21 08:00:00 -4 0 Calma 8 Noroeste 0 -- -- 83
2017-11-21 07:00:00 -2.6 5 Oeste 8 Noroeste 0 -- -- 82
2017-11-21 06:00:00 -3.4 2 Noroeste 6 Noroeste 0 -- -- 82
2017-11-21 05:00:00 -2.7 3 Oeste 8 Oeste 0 -- -- 82
2017-11-21 04:00:00 -2.2 4 Noroeste 6 Oeste 0 -- -- 81
2017-11-21 03:00:00 -2.2 4 Oeste 10 Oeste 0 -- -- 82
2017-11-21 02:00:00 -1.4 4 Oeste 8 Noroeste 0 -- -- 80
2017-11-21 01:00:00 -0.2 3 Oeste 11 Oeste 0 -- -- 77
2017-11-21 00:00:00 -1.3 4 Oeste 6 Oeste 0 -- -- 82
2017-11-20 23:00:00 -0.9 3 Noroeste 5 Noroeste 0 -- -- 80
2017-11-20 22:00:00 0 2 Noroeste 6 Noroeste 0 -- -- 76
2017-11-20 21:00:00 1.2 3 Noroeste 8 Noroeste 0 -- -- 71
2017-11-20 20:00:00 2.7 0 Calma 6 Oeste 0 -- -- 66
2017-11-20 19:00:00 5.7 0 Calma 6 Nordeste 0 -- -- 57
2017-11-20 18:00:00 8.9 3 Norte 8 Nordeste 0 -- -- 44
2017-11-20 17:00:00 14.2 3 Nordeste 13 Nordeste 0 -- -- 36
2017-11-20 16:00:00 15.4 8 Nordeste 14 Nordeste 0 -- -- 34
2017-11-20 15:00:00 16.2 8 Nordeste 14 Nordeste 0 -- -- 33
2017-11-20 14:00:00 16.1 5 Nordeste 13 Este 0 -- -- 33
2017-11-20 13:00:00 15.8 5 Nordeste 11 Este 0 -- -- 34
2017-11-20 12:00:00 13.7 3 Nordeste 7 Este 0 -- -- 36
2017-11-20 11:00:00 10.3 0 Calma 7 Oeste 0 -- -- 45
2017-11-20 10:00:00 4.8 3 Oeste 7 Oeste 0 -- -- 56
2017-11-20 09:00:00 0 0 Calma 7 Noroeste 0 -- -- 74
2017-11-20 08:00:00 -2.6 4 Noroeste 7 Noroeste 0 -- -- 77
2017-11-20 07:00:00 -3.3 5 Oeste 8 Oeste 0 -- -- 79
2017-11-20 06:00:00 -3.4 5 Oeste 7 Oeste 0 -- -- 79
2017-11-20 05:00:00 -3.2 3 Noroeste 9 Noroeste 0 -- -- 78
2017-11-20 04:00:00 -2.4 6 Noroeste 9 Oeste 0 -- -- 78
2017-11-20 03:00:00 -2.2 5 Noroeste 8 Noroeste 0 -- -- 77
2017-11-20 02:00:00 -1.5 6 Noroeste 9 Noroeste 0 -- -- 77
2017-11-20 01:00:00 -1.7 0 Calma 8 Noroeste 0 -- -- 75
2017-11-20 00:00:00 -1.4 2 Oeste 8 Noroeste 0 -- -- 72
2017-11-19 23:00:00 0.3 4 Noroeste 9 Oeste 0 -- -- 69
2017-11-19 22:00:00 -0.1 2 Noroeste 6 Noroeste 0 -- -- 67
2017-11-19 21:00:00 1.6 0 Calma 6 Nordeste 0 -- -- 65
2017-11-19 20:00:00 3.3 5 Noroeste 8 Noroeste 0 -- -- 60
2017-11-19 19:00:00 5.5 3 Noroeste 7 Nordeste 0 -- -- 52
2017-11-19 18:00:00 11.3 3 Nordeste 12 Nordeste 0 -- -- 36
2017-11-19 17:00:00 14.9 5 Nordeste 12 Nordeste 0 -- -- 32
2017-11-19 16:00:00 15.9 7 Nordeste 14 Nordeste 0 -- -- 29
2017-11-19 15:00:00 16.8 5 Nordeste 11 Este 0 -- -- 29
2017-11-19 14:00:00 15.8 6 Este 10 Este 0 -- -- 32
2017-11-19 13:00:00 14.6 3 Nordeste 9 Este 0 -- -- 36
2017-11-19 12:00:00 13.2 2 Nordeste 6 Nordeste 0 -- -- 38
2017-11-19 11:00:00 9 0 Calma 8 Oeste 0 -- -- 51
2017-11-19 10:00:00 3.3 5 Oeste 10 Oeste 0 -- -- 72
2017-11-19 09:00:00 -1.2 0 Calma 8 Oeste 0 -- -- 90
2017-11-19 08:00:00 -3.8 3 Oeste 7 Noroeste 0 -- -- 89
2017-11-19 07:00:00 -2.5 5 Oeste 11 Oeste 0 -- -- 90
2017-11-19 06:00:00 -3.2 4 Noroeste 8 Oeste 0 -- -- 89
2017-11-19 05:00:00 -1.4 4 Oeste 8 Oeste 0 -- -- 88
2017-11-19 04:00:00 -2.1 6 Oeste 8 Oeste 0 -- -- 90
2017-11-19 03:00:00 -2.2 0 Calma 8 Oeste 0 -- -- 88
2017-11-19 02:00:00 -1.3 0 Calma 8 Oeste 0 -- -- 85
2017-11-19 01:00:00 0.2 0 Calma 9 Oeste 0 -- -- 84
2017-11-19 00:00:00 0.2 3 Noroeste 10 Oeste 0 -- -- 80
2017-11-18 23:00:00 0.9 6 Oeste 8 Oeste 0 -- -- 80
2017-11-18 22:00:00 1.7 0 Calma 6 Noroeste 0 -- -- 76
2017-11-18 21:00:00 2.7 2 Nordeste 8 Noroeste 0 -- -- 68
2017-11-18 20:00:00 4.6 3 Noroeste 10 Noroeste 0 -- -- 62
2017-11-18 19:00:00 6.1 3 Norte 6 Noroeste 0 -- -- 55
2017-11-18 18:00:00 10.3 0 Calma 14 Noroeste 0 -- -- 42
2017-11-18 17:00:00 15.1 6 Noroeste 17 Norte 0 -- -- 35
2017-11-18 16:00:00 16.8 7 Noroeste 20 Noroeste 0 -- -- 32
2017-11-18 15:00:00 17.1 8 Noroeste 19 Nordeste 0 -- -- 33
2017-11-18 14:00:00 17.4 2 Norte 10 Este 0 -- -- 34
2017-11-18 13:00:00 16.5 2 Nordeste 8 Norte 0 -- -- 36
2017-11-18 12:00:00 14.3 0 Calma 7 Noroeste 0 -- -- 42
2017-11-18 11:00:00 10 4 Noroeste 7 Oeste 0 -- -- 51
2017-11-18 10:00:00 6.1 4 Oeste 9 Oeste 0 -- -- 63
2017-11-18 09:00:00 1.3 3 Oeste 8 Noroeste 0 -- -- 83
2017-11-18 08:00:00 -1.4 5 Noroeste 7 Oeste 0 -- -- 86
2017-11-18 07:00:00 -1.8 2 Oeste 3 Noroeste 0 -- -- 84
2017-11-18 06:00:00 0.3 3 Oeste 9 Oeste 0 -- -- 82
2017-11-18 05:00:00 -1.1 3 Oeste 5 Oeste 0 -- -- 86
2017-11-18 04:00:00 -0.4 5 Noroeste 6 Noroeste 0 -- -- 85
2017-11-18 03:00:00 0.2 3 Noroeste 6 Noroeste 0 -- -- 83
2017-11-18 02:00:00 0.6 4 Noroeste 6 Oeste 0 -- -- 82
2017-11-18 01:00:00 1.7 2 Nordeste 8 Oeste 0 -- -- 77
2017-11-18 00:00:00 2.5 3 Oeste 9 Oeste 0 -- -- 75
2017-11-17 23:00:00 4.5 4 Noroeste 10 Oeste 0 -- -- 71
2017-11-17 22:00:00 3.5 4 Oeste 8 Oeste 0 -- -- 71
2017-11-17 21:00:00 5 4 Oeste 10 Oeste 0 -- -- 68
2017-11-17 20:00:00 5.7 4 Noroeste 8 Oeste 0 -- -- 61
2017-11-17 19:00:00 7.1 3 Norte 6 Oeste 0 -- -- 58
2017-11-17 18:00:00 10.1 3 Oeste 4 Oeste 0 -- -- 49
2017-11-17 17:00:00 15.8 2 Nordeste 9 Nordeste 0 -- -- 36
2017-11-17 16:00:00 16.7 6 Nordeste 14 Este 0 -- -- 33
2017-11-17 15:00:00 17.2 9 Nordeste 16 Este 0 -- -- 34
2017-11-17 14:00:00 17.2 8 Nordeste 15 Este 0 -- -- 33
2017-11-17 13:00:00 16.7 6 Nordeste -- -- -- -- -- 35
2017-11-17 12:00:00 15 4 Nordeste -- -- -- -- -- 41
2017-11-17 11:00:00 12.3 5 Norte 9 Norte 0 -- -- 43
2017-11-17 10:00:00 7.8 0 Calma 7 Oeste 0 -- -- 61
2017-11-17 09:00:00 2.4 2 Noroeste 8 Noroeste 0 -- -- 79
2017-11-17 08:00:00 -1.4 4 Noroeste 7 Noroeste 0 -- -- 86
2017-11-17 07:00:00 -1.2 0 Calma 6 Noroeste 0 -- -- 85
2017-11-17 06:00:00 -0.9 5 Noroeste 8 Noroeste 0 -- -- 85
2017-11-17 05:00:00 -0.5 5 Noroeste 8 Oeste 0 -- -- 83
2017-11-17 04:00:00 -0.3 0 Calma 8 Oeste 0 -- -- 81
2017-11-17 03:00:00 1.1 6 Oeste 12 Oeste 0 -- -- 81
2017-11-17 02:00:00 -0.2 3 Noroeste 7 Oeste 0 -- -- 81
2017-11-17 01:00:00 0.2 0 Calma 6 Noroeste 0 -- -- 79
2017-11-17 00:00:00 0.6 3 Oeste 6 Oeste 0 -- -- 77
2017-11-16 23:00:00 1.2 4 Noroeste 6 Oeste 0 -- -- 74
2017-11-16 22:00:00 2.8 3 Noroeste 8 Oeste 0 -- -- 68
2017-11-16 21:00:00 4.6 5 Oeste 8 Oeste 0 -- -- 62
2017-11-16 20:00:00 5.2 4 Noroeste 8 Noroeste 0 -- -- 57
2017-11-16 19:00:00 8.3 2 Norte 8 Noroeste 0 -- -- 47
2017-11-16 18:00:00 10.9 3 Noroeste 10 Oeste 0 -- -- 37
2017-11-16 17:00:00 16.2 5 Norte 14 Nordeste 0 -- -- 30
2017-11-16 16:00:00 17.7 8 Nordeste 18 Nordeste 0 -- -- 29
2017-11-16 15:00:00 19 6 Nordeste 14 Nordeste 0 -- -- 28
2017-11-16 14:00:00 19.3 3 Noroeste 11 Nordeste 0 -- -- 26
2017-11-16 13:00:00 18 3 Norte 8 Noroeste 0 -- -- 28
2017-11-16 12:00:00 15.5 4 Noroeste 10 Oeste 0 -- -- 34
2017-11-16 11:00:00 11.7 3 Noroeste 5 Noroeste 0 -- -- 46
2017-11-16 10:00:00 7.5 0 Calma 4 Nordeste 0 -- -- 62
2017-11-16 09:00:00 0.6 0 Calma 9 Noroeste 0 -- -- 82
2017-11-16 08:00:00 -2.7 3 Oeste 6 Oeste 0 -- -- 86
2017-11-16 07:00:00 -2.4 3 Noroeste 7 Noroeste 0 -- -- 85
2017-11-16 06:00:00 -1.9 3 Noroeste 8 Noroeste 0 -- -- 87
2017-11-16 05:00:00 -2.7 4 Oeste 7 Oeste 0 -- -- 87
2017-11-16 04:00:00 -2.3 3 Noroeste 6 Oeste 0 -- -- 88
2017-11-16 03:00:00 -2 0 Calma 8 Oeste 0 -- -- 86
2017-11-16 02:00:00 -2.3 3 Noroeste 6 Noroeste 0 -- -- 86
2017-11-16 01:00:00 -1.9 3 Oeste 5 Oeste 0 -- -- 86
2017-11-16 00:00:00 -1.2 2 Noroeste 8 Oeste 0 -- -- 83
2017-11-15 23:00:00 -1.1 4 Noroeste 6 Noroeste 0 -- -- 83
2017-11-15 22:00:00 -0.5 2 Noroeste 4 Noroeste 0 -- -- 80
2017-11-15 21:00:00 0.6 2 Noroeste 6 Noroeste 0 -- -- 74
2017-11-15 20:00:00 1.5 2 Noroeste 4 Oeste 0 -- -- 67
2017-11-15 19:00:00 4.2 0 Calma 7 Nordeste 0 -- -- 54
2017-11-15 18:00:00 8.8 4 Nordeste 9 Nordeste 0 -- -- 43
2017-11-15 17:00:00 11.4 5 Este 13 Nordeste 0 -- -- 39
2017-11-15 16:00:00 13.2 8 Nordeste 13 Nordeste 0 -- -- 37
2017-11-15 15:00:00 15.4 3 Noroeste 9 Este 0 -- -- 34
2017-11-15 14:00:00 13.4 3 Nordeste 9 Norte 0 -- -- 37
2017-11-15 13:00:00 11.6 4 Nordeste 10 Este 0 -- -- 38
2017-11-15 12:00:00 10 5 Nordeste 11 Este 0 -- -- 43
2017-11-15 11:00:00 8.4 0 Calma 5 Oeste 0 -- -- 52
2017-11-15 10:00:00 2.6 3 Oeste 7 Oeste 0 -- -- 72
2017-11-15 09:00:00 -1.1 0 Calma 7 Oeste 0 -- -- 89
2017-11-15 08:00:00 -4.4 3 Oeste 5 Oeste 0 -- -- 89
2017-11-15 07:00:00 -4.4 0 Calma 4 Noroeste 0 -- -- 88
2017-11-15 06:00:00 -3.8 0 Calma 6 Oeste 0 -- -- 87
2017-11-15 05:00:00 -3.1 5 Noroeste 8 Oeste 0 -- -- 86
2017-11-15 04:00:00 -2.7 3 Norte 9 Oeste 0 -- -- 85
2017-11-15 03:00:00 -2.8 3 Noroeste 6 Noroeste 0 -- -- 85
2017-11-15 02:00:00 -2.3 3 Noroeste 8 Noroeste 0 -- -- 82
2017-11-15 01:00:00 -1.6 3 Noroeste 10 Oeste 0 -- -- 81
2017-11-15 00:00:00 -1.1 4 Noroeste 8 Noroeste 0 -- -- 77